Time;durP1;ratioP1;P1;durP2;ratioP2;P2;SDS_P1;SDS_P2;PMS_P1;PMS_P2;Temp;Humidity;BMP_temperature;BMP_pressure;BME280_temperature;BME280_humidity;BME280_pressure;Samples;Min_cycle;Max_cycle;Signal;HPM_P1;HPM_P2
2022/02/27 00:01:26;;;;;;;5.00;3.10;;;6.20;56.80;;;;;;5018065;28;20087;-77
2022/02/27 00:03:51;;;;;;;6.60;2.72;;;6.20;56.60;;;;;;5015178;28;20100;-77
2022/02/27 00:06:17;;;;;;;4.00;2.67;;;6.20;56.80;;;;;;5012053;28;20026;-77
2022/02/27 00:08:43;;;;;;;8.93;3.63;;;6.10;56.90;;;;;;5021012;28;20036;-77
2022/02/27 00:11:09;;;;;;;8.00;3.72;;;6.10;57.20;;;;;;5014969;28;20057;-77
2022/02/27 00:13:35;;;;;;;10.43;3.47;;;6.10;57.10;;;;;;5015501;28;20068;-77
2022/02/27 00:16:00;;;;;;;8.00;3.47;;;6.00;57.30;;;;;;5015237;28;20524;-77
2022/02/27 00:18:26;;;;;;;8.68;3.72;;;5.90;57.50;;;;;;5018037;28;20040;-77
2022/02/27 00:20:52;;;;;;;5.40;3.63;;;5.90;57.60;;;;;;5014999;28;20026;-77
2022/02/27 00:23:18;;;;;;;5.03;3.13;;;5.90;57.50;;;;;;5001143;28;20575;-77
2022/02/27 00:25:43;;;;;;;4.60;3.20;;;5.90;57.70;;;;;;5014903;28;20077;-77
2022/02/27 00:28:09;;;;;;;6.63;3.30;;;5.90;57.70;;;;;;5015237;28;20026;-77
2022/02/27 00:30:37;;;;;;;4.88;3.10;;;5.80;57.70;;;;;;5017560;28;20026;-77
2022/02/27 00:33:03;;;;;;;5.25;3.17;;;5.80;58.00;;;;;;5021050;28;20080;-77
2022/02/27 00:35:29;;;;;;;5.53;2.88;;;5.80;58.00;;;;;;5022062;28;20077;-77
2022/02/27 00:37:54;;;;;;;7.30;3.70;;;5.70;57.80;;;;;;5001053;28;20432;-77
2022/02/27 00:40:20;;;;;;;5.57;2.97;;;5.70;58.30;;;;;;5018755;28;20054;-77
2022/02/27 00:42:46;;;;;;;4.35;2.50;;;5.70;58.40;;;;;;5019387;28;20503;-77
2022/02/27 00:45:12;;;;;;;5.97;3.17;;;5.60;58.20;;;;;;5018718;28;20034;-77
2022/02/27 00:47:38;;;;;;;5.88;3.55;;;5.60;58.30;;;;;;5018849;28;20072;-76
2022/02/27 00:50:05;;;;;;;7.28;3.85;;;5.70;58.20;;;;;;5018701;28;20100;-77
2022/02/27 00:52:31;;;;;;;7.53;3.67;;;5.70;58.10;;;;;;5018366;28;20049;-77
2022/02/27 00:54:57;;;;;;;7.95;3.78;;;5.70;58.20;;;;;;5018427;28;20495;-77
2022/02/27 00:57:23;;;;;;;7.45;3.45;;;5.60;58.20;;;;;;5033350;28;20030;-76
2022/02/27 00:59:50;;;;;;;3.80;2.78;;;5.60;58.20;;;;;;5038139;28;20459;-77
2022/02/27 01:02:16;;;;;;;6.40;3.10;;;5.50;58.30;;;;;;5037835;28;20029;-77
2022/02/27 01:04:42;;;;;;;3.58;2.63;;;5.50;58.40;;;;;;5031993;28;20101;-77
2022/02/27 01:07:08;;;;;;;6.53;2.92;;;5.50;58.40;;;;;;5018350;28;20447;-77
2022/02/27 01:09:34;;;;;;;5.53;3.50;;;5.60;58.00;;;;;;5017051;28;20038;-77
2022/02/27 01:11:59;;;;;;;10.50;3.85;;;5.60;57.90;;;;;;5018390;28;20041;-77
2022/02/27 01:14:25;;;;;;;5.28;3.00;;;5.70;57.70;;;;;;5025686;28;20028;-77
2022/02/27 01:16:51;;;;;;;4.35;2.80;;;5.60;57.90;;;;;;5037891;28;20025;-77
2022/02/27 01:19:17;;;;;;;5.18;2.72;;;5.60;57.80;;;;;;5037356;28;20030;-77
2022/02/27 01:21:42;;;;;;;5.05;2.80;;;5.50;57.80;;;;;;5018248;28;20034;-77
2022/02/27 01:24:08;;;;;;;5.75;3.45;;;5.50;58.00;;;;;;5033621;28;20032;-76
2022/02/27 01:26:34;;;;;;;4.43;2.78;;;5.50;58.10;;;;;;5015889;28;20033;-77
2022/02/27 01:29:01;;;;;;;6.55;2.83;;;5.50;58.00;;;;;;5018009;28;20084;-77
2022/02/27 01:31:27;;;;;;;6.93;3.53;;;5.50;58.10;;;;;;5018208;28;20475;-77
2022/02/27 01:33:52;;;;;;;6.85;3.20;;;5.50;58.10;;;;;;5003173;28;20034;-77
2022/02/27 01:36:18;;;;;;;8.90;3.38;;;5.50;58.00;;;;;;5017778;28;20034;-77
2022/02/27 01:38:45;;;;;;;7.18;2.47;;;5.50;57.90;;;;;;5017736;28;20029;-77
2022/02/27 01:41:13;;;;;;;4.35;2.70;;;5.50;57.90;;;;;;5017125;28;20089;-77
2022/02/27 01:43:39;;;;;;;7.20;3.72;;;5.50;57.90;;;;;;5017485;28;20026;-77
2022/02/27 01:46:09;;;;;;;3.15;2.60;;;5.50;58.00;;;;;;5017489;28;20161;-77
2022/02/27 01:48:35;;;;;;;4.00;2.47;;;5.50;58.10;;;;;;5017571;28;20041;-77
2022/02/27 01:51:01;;;;;;;7.65;3.58;;;5.30;58.00;;;;;;5025585;28;20048;-77
2022/02/27 01:53:27;;;;;;;5.07;2.60;;;5.40;58.10;;;;;;5031524;28;20467;-77
2022/02/27 01:55:54;;;;;;;8.07;3.45;;;5.40;58.10;;;;;;5017415;28;20030;-77
2022/02/27 01:58:20;;;;;;;4.55;3.08;;;5.40;58.10;;;;;;5017513;28;20034;-76
2022/02/27 02:00:45;;;;;;;4.80;3.05;;;5.40;58.10;;;;;;5017253;28;20488;-77
2022/02/27 02:03:12;;;;;;;6.57;3.33;;;5.40;57.90;;;;;;5017510;28;20026;-76
2022/02/27 02:05:38;;;;;;;7.40;3.28;;;5.50;57.80;;;;;;5017291;28;20037;-77
2022/02/27 02:08:04;;;;;;;3.53;2.45;;;5.40;58.00;;;;;;5017295;28;20030;-77
2022/02/27 02:10:30;;;;;;;5.93;3.30;;;5.30;58.30;;;;;;5016744;28;20066;-76
2022/02/27 02:12:56;;;;;;;5.82;3.15;;;5.30;58.50;;;;;;5017261;28;20022;-77
2022/02/27 02:15:22;;;;;;;4.88;3.58;;;5.30;58.60;;;;;;5017335;28;20045;-77
2022/02/27 02:17:48;;;;;;;5.53;3.20;;;5.30;58.60;;;;;;5017471;28;20042;-77
2022/02/27 02:20:18;;;;;;;4.15;2.78;;;5.20;58.70;;;;;;5035115;28;20109;-77
2022/02/27 02:22:43;;;;;;;6.68;2.78;;;5.30;58.70;;;;;;5036629;28;20026;-77
2022/02/27 02:25:09;;;;;;;4.47;2.75;;;5.20;58.70;;;;;;5027301;28;20034;-77
2022/02/27 02:27:35;;;;;;;5.70;2.85;;;5.30;58.70;;;;;;5017126;28;20037;-76
2022/02/27 02:30:01;;;;;;;4.22;2.67;;;5.20;58.80;;;;;;5016857;28;20018;-77
2022/02/27 02:32:27;;;;;;;5.18;3.00;;;5.30;59.00;;;;;;5015389;28;20036;-76
2022/02/27 02:34:52;;;;;;;4.43;2.90;;;5.20;58.90;;;;;;5017129;28;20030;-77
2022/02/27 02:37:18;;;;;;;4.57;2.70;;;5.20;59.20;;;;;;5016673;28;20113;-76
2022/02/27 02:39:44;;;;;;;7.50;3.20;;;5.20;59.30;;;;;;5016467;28;20423;-77
2022/02/27 02:42:10;;;;;;;6.38;3.30;;;5.20;59.30;;;;;;5016422;28;20026;-76
2022/02/27 02:44:35;;;;;;;6.00;3.20;;;5.20;59.00;;;;;;5016859;28;20041;-77
2022/02/27 02:47:01;;;;;;;5.35;3.35;;;5.10;59.20;;;;;;5016283;28;20030;-76
2022/02/27 02:49:27;;;;;;;5.53;3.58;;;5.10;59.40;;;;;;5016509;28;20530;-76
2022/02/27 02:51:53;;;;;;;6.30;3.17;;;5.00;59.60;;;;;;5020338;28;20041;-77
2022/02/27 02:54:19;;;;;;;5.90;3.20;;;5.00;59.70;;;;;;5016466;28;20483;-76
2022/02/27 02:56:45;;;;;;;4.50;3.22;;;5.00;59.60;;;;;;5016119;28;20435;-77
2022/02/27 02:59:11;;;;;;;4.20;3.38;;;5.00;59.70;;;;;;5016338;28;20101;-76
2022/02/27 03:01:37;;;;;;;6.65;3.35;;;5.00;59.80;;;;;;5016593;28;20040;-77
2022/02/27 03:04:03;;;;;;;5.85;3.63;;;5.00;60.00;;;;;;5016567;28;20125;-77
2022/02/27 03:06:30;;;;;;;6.20;3.13;;;5.00;60.20;;;;;;5016507;28;20034;-77
2022/02/27 03:08:57;;;;;;;5.50;3.70;;;4.90;60.40;;;;;;5016060;28;20040;-77
2022/02/27 03:11:22;;;;;;;9.85;4.00;;;4.90;60.10;;;;;;5015694;28;20076;-77
2022/02/27 03:13:49;;;;;;;3.40;2.72;;;4.90;60.40;;;;;;5015911;28;20026;-76
2022/02/27 03:16:15;;;;;;;5.97;3.67;;;4.80;60.60;;;;;;5016251;28;20085;-77
2022/02/27 03:18:43;;;;;;;5.60;3.08;;;4.80;60.70;;;;;;5021634;28;20085;-77
2022/02/27 03:21:08;;;;;;;5.63;3.55;;;4.70;60.90;;;;;;5035622;28;20022;-77
2022/02/27 03:23:35;;;;;;;7.38;3.67;;;4.70;61.10;;;;;;5027280;28;20690;-76
2022/02/27 03:26:01;;;;;;;5.70;3.88;;;4.70;61.10;;;;;;5015815;28;20030;-76
2022/02/27 03:28:26;;;;;;;7.20;4.15;;;4.70;61.10;;;;;;5016159;28;20030;-76
2022/02/27 03:30:53;;;;;;;6.90;3.47;;;4.70;61.40;;;;;;5015778;28;20026;-77
2022/02/27 03:33:18;;;;;;;4.80;2.42;;;4.60;61.50;;;;;;5015294;28;20053;-77
2022/02/27 03:35:44;;;;;;;7.30;4.00;;;4.60;61.70;;;;;;5015845;28;20400;-76
2022/02/27 03:38:10;;;;;;;3.80;3.17;;;4.50;61.90;;;;;;5015511;28;20034;-76
2022/02/27 03:40:36;;;;;;;5.63;3.28;;;4.50;61.90;;;;;;5015315;28;20038;-77
2022/02/27 03:43:01;;;;;;;6.78;3.28;;;4.60;62.10;;;;;;5015500;28;20543;-77
2022/02/27 03:45:27;;;;;;;8.98;3.85;;;4.50;62.00;;;;;;5015735;28;20030;-77
2022/02/27 03:47:54;;;;;;;8.85;3.35;;;4.50;62.10;;;;;;4997702;28;20030;-77
2022/02/27 03:50:20;;;;;;;3.65;3.15;;;4.50;62.40;;;;;;5018352;28;20022;-77
2022/02/27 03:52:46;;;;;;;6.82;3.60;;;4.40;62.40;;;;;;5033575;28;20513;-77
2022/02/27 03:55:14;;;;;;;3.83;2.92;;;4.40;62.50;;;;;;5015353;28;20100;-77
2022/02/27 03:57:40;;;;;;;5.15;2.92;;;4.40;62.50;;;;;;5015373;28;20069;-76
2022/02/27 04:00:14;;;;;;;4.88;3.08;;;4.30;62.70;;;;;;5015345;28;20034;-76
2022/02/27 04:02:41;;;;;;;5.57;3.10;;;4.30;62.90;;;;;;5015578;28;20029;-76
2022/02/27 04:05:07;;;;;;;6.00;3.05;;;4.30;62.80;;;;;;5015381;28;20140;-77
2022/02/27 04:07:33;;;;;;;3.72;2.97;;;4.30;62.80;;;;;;5015173;28;20068;-77
2022/02/27 04:09:59;;;;;;;6.60;3.05;;;4.30;62.80;;;;;;5014742;28;20056;-77
2022/02/27 04:12:24;;;;;;;4.75;3.15;;;4.30;62.90;;;;;;5013852;28;20446;-76
2022/02/27 04:14:50;;;;;;;4.15;2.90;;;4.30;62.80;;;;;;5015226;28;20431;-77
2022/02/27 04:17:16;;;;;;;8.95;3.50;;;4.20;63.00;;;;;;4997881;28;20034;-77
2022/02/27 04:19:41;;;;;;;2.90;2.65;;;4.30;63.10;;;;;;5029316;28;20022;-77
2022/02/27 04:22:07;;;;;;;4.90;2.70;;;4.30;63.00;;;;;;5034822;28;20029;-77
2022/02/27 04:24:32;;;;;;;8.45;3.20;;;4.30;62.90;;;;;;5031669;28;20036;-77
2022/02/27 04:26:58;;;;;;;13.20;3.72;;;4.20;63.20;;;;;;5014861;28;20467;-76
2022/02/27 04:29:24;;;;;;;4.35;2.55;;;4.20;63.30;;;;;;5015098;28;20418;-77
2022/02/27 04:31:50;;;;;;;4.32;3.00;;;4.20;63.20;;;;;;5015066;28;20060;-77
2022/02/27 04:34:16;;;;;;;5.53;3.72;;;4.20;63.30;;;;;;5014889;28;20034;-77
2022/02/27 04:36:42;;;;;;;5.70;3.67;;;4.20;63.30;;;;;;5015495;28;20049;-77
2022/02/27 04:39:07;;;;;;;5.70;3.47;;;4.20;63.20;;;;;;5014969;28;20029;-77
2022/02/27 04:41:33;;;;;;;5.13;3.33;;;4.20;63.20;;;;;;5014914;28;20394;-77
2022/02/27 04:43:59;;;;;;;5.03;3.22;;;4.20;63.30;;;;;;5013572;28;20040;-77
2022/02/27 04:46:24;;;;;;;7.78;5.03;;;4.20;63.20;;;;;;5012986;28;20125;-77
2022/02/27 04:48:50;;;;;;;5.63;3.10;;;4.20;63.20;;;;;;5014727;28;20526;-77
2022/02/27 04:51:16;;;;;;;9.25;3.40;;;4.20;63.30;;;;;;5016578;28;20026;-77
2022/02/27 04:53:41;;;;;;;5.47;3.63;;;4.20;63.40;;;;;;5014775;28;20025;-77
2022/02/27 04:56:08;;;;;;;8.13;3.40;;;4.20;63.60;;;;;;5015058;28;20026;-77
2022/02/27 04:58:34;;;;;;;6.22;3.42;;;4.10;63.70;;;;;;5014794;28;20579;-77
2022/02/27 05:00:59;;;;;;;6.70;3.42;;;4.10;63.80;;;;;;5014822;28;20460;-77
2022/02/27 05:03:25;;;;;;;6.30;3.40;;;4.10;64.00;;;;;;5014881;28;20041;-76
2022/02/27 05:05:51;;;;;;;6.80;4.10;;;4.00;64.00;;;;;;5014766;28;20041;-77
2022/02/27 05:08:16;;;;;;;3.95;3.33;;;4.00;64.00;;;;;;5014603;28;20025;-76
2022/02/27 05:10:42;;;;;;;4.53;3.08;;;4.00;64.10;;;;;;5014498;28;20119;-77
2022/02/27 05:13:08;;;;;;;5.15;3.13;;;4.00;64.10;;;;;;5014938;28;20617;-76
2022/02/27 05:15:34;;;;;;;5.18;3.28;;;4.00;64.30;;;;;;5016893;28;20022;-77
2022/02/27 05:17:59;;;;;;;5.50;2.78;;;4.00;64.20;;;;;;5018316;28;20022;-77
2022/02/27 05:20:25;;;;;;;4.78;3.13;;;4.00;64.30;;;;;;5037720;28;20037;-76
2022/02/27 05:22:51;;;;;;;4.93;2.90;;;3.90;64.40;;;;;;5026811;28;20091;-76
2022/02/27 05:25:19;;;;;;;4.75;3.33;;;3.90;64.40;;;;;;5037688;28;20040;-76
2022/02/27 05:27:46;;;;;;;7.38;3.63;;;3.90;64.50;;;;;;5037641;28;20025;-76
2022/02/27 05:30:13;;;;;;;4.53;3.28;;;3.90;64.30;;;;;;5024669;28;20057;-76
2022/02/27 05:32:39;;;;;;;5.70;3.03;;;4.00;64.30;;;;;;5018092;28;20029;-77
2022/02/27 05:35:06;;;;;;;4.07;2.95;;;4.00;64.40;;;;;;5017719;28;20025;-77
2022/02/27 05:37:31;;;;;;;3.97;2.92;;;4.00;64.40;;;;;;5017502;28;20488;-77
2022/02/27 05:39:57;;;;;;;5.95;2.72;;;4.00;64.50;;;;;;5017692;28;20056;-77
2022/02/27 05:42:23;;;;;;;5.00;3.00;;;3.90;64.50;;;;;;5017830;28;20022;-77
2022/02/27 05:44:48;;;;;;;6.40;3.70;;;3.90;64.50;;;;;;5017996;28;20038;-77
2022/02/27 05:47:14;;;;;;;7.30;3.42;;;3.90;64.70;;;;;;5017637;28;20395;-77
2022/02/27 05:49:40;;;;;;;4.03;2.65;;;3.80;64.80;;;;;;5017590;28;20034;-76
2022/02/27 05:52:06;;;;;;;6.50;3.38;;;3.80;64.90;;;;;;5026640;28;20038;-76
2022/02/27 05:54:32;;;;;;;4.20;2.60;;;3.80;64.90;;;;;;5017410;28;20029;-77
2022/02/27 05:56:58;;;;;;;5.70;3.33;;;3.80;65.10;;;;;;5017156;28;20558;-77
2022/02/27 05:59:24;;;;;;;5.13;3.13;;;3.80;65.10;;;;;;5017459;28;20029;-76
2022/02/27 06:01:49;;;;;;;5.88;3.30;;;3.80;65.00;;;;;;5017339;28;20028;-76
2022/02/27 06:04:16;;;;;;;7.10;4.18;;;3.80;65.10;;;;;;5017266;28;20030;-77
2022/02/27 06:06:42;;;;;;;6.22;2.90;;;3.80;65.10;;;;;;5017176;28;20434;-76
2022/02/27 06:09:08;;;;;;;5.45;3.00;;;3.80;65.20;;;;;;5017143;28;20108;-77
2022/02/27 06:11:33;;;;;;;5.10;3.03;;;3.80;65.10;;;;;;5016888;28;20082;-77
2022/02/27 06:13:59;;;;;;;5.07;3.13;;;3.80;65.20;;;;;;5016727;28;20030;-76
2022/02/27 06:16:25;;;;;;;6.38;3.78;;;3.80;65.20;;;;;;5017142;28;20520;-76
2022/02/27 06:18:51;;;;;;;7.55;4.35;;;3.80;65.20;;;;;;5024036;28;20180;-77
2022/02/27 06:21:16;;;;;;;3.55;2.72;;;3.80;65.30;;;;;;5036903;28;20475;-77
2022/02/27 06:23:42;;;;;;;5.22;3.28;;;3.80;65.30;;;;;;5036778;28;20033;-76
2022/02/27 06:26:08;;;;;;;6.18;3.67;;;3.80;65.40;;;;;;5034360;28;20482;-77
2022/02/27 06:28:33;;;;;;;8.68;4.15;;;3.80;65.30;;;;;;5016797;28;20392;-77
2022/02/27 06:30:59;;;;;;;6.63;3.35;;;3.80;65.40;;;;;;5016783;28;20026;-76
2022/02/27 06:33:25;;;;;;;6.05;3.72;;;3.80;65.30;;;;;;5016277;28;20491;-76
2022/02/27 06:35:50;;;;;;;4.97;2.72;;;3.70;65.50;;;;;;5016744;28;20029;-77
2022/02/27 06:38:16;;;;;;;7.68;3.17;;;3.80;65.30;;;;;;5017083;28;20038;-76
2022/02/27 06:40:42;;;;;;;6.07;3.28;;;3.80;65.40;;;;;;5016538;28;20033;-77
2022/02/27 06:43:08;;;;;;;5.22;3.58;;;3.80;65.30;;;;;;5016012;28;20036;-77
2022/02/27 06:45:34;;;;;;;6.90;3.13;;;3.70;65.60;;;;;;5014247;28;20040;-77
2022/02/27 06:47:59;;;;;;;6.15;3.90;;;3.70;65.70;;;;;;5024935;28;20482;-76
2022/02/27 06:50:25;;;;;;;7.05;4.10;;;3.70;65.80;;;;;;5035913;28;20033;-77
2022/02/27 06:52:52;;;;;;;7.47;4.32;;;3.70;65.80;;;;;;5026064;28;20030;-77
2022/02/27 06:55:19;;;;;;;4.95;4.28;;;3.70;65.90;;;;;;5016208;28;20083;-76
2022/02/27 06:57:45;;;;;;;11.77;4.32;;;3.70;65.80;;;;;;5016301;28;20156;-76
2022/02/27 07:00:12;;;;;;;6.20;2.88;;;3.70;65.80;;;;;;5025051;28;20163;-77
2022/02/27 07:02:39;;;;;;;6.57;4.20;;;3.70;66.00;;;;;;5019127;28;20061;-77
2022/02/27 07:05:05;;;;;;;6.25;4.13;;;3.80;66.00;;;;;;5016275;28;20030;-77
2022/02/27 07:07:31;;;;;;;5.03;3.70;;;3.80;65.80;;;;;;5016526;28;20036;-77
2022/02/27 07:10:00;;;;;;;4.70;3.45;;;3.80;65.70;;;;;;5015654;28;20030;-77
2022/02/27 07:12:36;;;;;;;5.68;3.58;;;3.80;65.70;;;;;;5016435;28;20080;-76
2022/02/27 07:15:06;;;;;;;9.60;4.15;;;3.70;65.90;;;;;;5016019;28;20467;-77
2022/02/27 07:17:32;;;;;;;6.05;3.67;;;3.80;65.90;;;;;;5016021;28;20487;-77
2022/02/27 07:19:57;;;;;;;6.68;4.13;;;3.80;66.00;;;;;;5024244;28;20064;-77
2022/02/27 07:22:23;;;;;;;8.68;5.13;;;3.80;66.20;;;;;;5021687;28;20029;-76
2022/02/27 07:24:49;;;;;;;7.10;4.38;;;3.80;66.10;;;;;;5035167;28;20030;-77
2022/02/27 07:27:15;;;;;;;6.65;3.92;;;3.80;66.00;;;;;;5034272;28;20022;-78
2022/02/27 07:29:42;;;;;;;8.50;4.20;;;3.80;65.80;;;;;;5032755;28;20047;-77
2022/02/27 07:32:11;;;;;;;7.55;3.88;;;3.90;65.50;;;;;;5033359;28;20017;-76
2022/02/27 07:34:38;;;;;;;9.87;4.10;;;4.10;65.40;;;;;;5034234;28;20025;-76
2022/02/27 07:37:06;;;;;;;5.05;3.85;;;4.40;64.60;;;;;;5015986;28;20376;-76
2022/02/27 07:39:32;;;;;;;6.35;4.00;;;5.10;62.50;;;;;;5034867;28;20056;-76
2022/02/27 07:41:59;;;;;;;4.88;3.58;;;5.60;60.40;;;;;;5016334;28;20025;-77
2022/02/27 07:44:25;;;;;;;12.00;4.03;;;6.70;58.00;;;;;;5017038;28;20022;-77
2022/02/27 07:46:51;;;;;;;6.43;3.63;;;7.00;55.40;;;;;;5016804;28;20037;-77
2022/02/27 07:49:16;;;;;;;4.88;4.03;;;6.40;56.60;;;;;;5032898;28;20029;-77
2022/02/27 07:51:43;;;;;;;6.63;4.28;;;6.70;56.80;;;;;;5035028;28;20040;-76
2022/02/27 07:54:08;;;;;;;7.90;4.03;;;7.90;52.80;;;;;;5013789;28;20029;-77
2022/02/27 07:56:34;;;;;;;5.78;4.20;;;8.80;50.60;;;;;;4997878;28;20460;-78
2022/02/27 07:59:00;;;;;;;5.05;3.78;;;9.30;48.90;;;;;;5015436;28;20029;-78
2022/02/27 08:01:29;;;;;;;7.55;3.92;;;9.80;47.00;;;;;;4997079;28;20037;-75
2022/02/27 08:03:55;;;;;;;6.20;3.42;;;10.20;45.70;;;;;;5015535;28;20037;-74
2022/02/27 08:09:41;;;;;;;5.78;3.53;;;9.40;47.20;;;;;;5090768;28;20382;-77
2022/02/27 08:12:08;;;;;;;6.75;4.40;;;9.20;48.00;;;;;;5103383;28;20050;-74
2022/02/27 08:14:33;;;;;;;7.10;4.70;;;9.20;48.00;;;;;;5089213;28;20047;-75
2022/02/27 08:16:59;;;;;;;6.63;3.55;;;9.60;47.10;;;;;;5102206;28;20032;-75
2022/02/27 08:19:24;;;;;;;6.43;3.85;;;9.80;46.50;;;;;;5094002;28;20039;-74
2022/02/27 08:21:50;;;;;;;7.95;4.20;;;10.00;46.90;;;;;;5111974;28;20077;-74
2022/02/27 08:24:16;;;;;;;6.57;3.67;;;9.80;46.70;;;;;;5093888;28;20055;-74
2022/02/27 08:26:41;;;;;;;8.30;4.47;;;9.60;47.20;;;;;;5088668;28;20929;-75
2022/02/27 08:29:07;;;;;;;6.30;3.90;;;9.50;47.60;;;;;;5091789;28;20497;-75
2022/02/27 08:31:35;;;;;;;6.97;3.88;;;9.70;47.40;;;;;;5067161;28;20029;-77
2022/02/27 08:34:00;;;;;;;5.70;3.70;;;10.30;46.30;;;;;;5105549;28;20035;-76
2022/02/27 08:36:26;;;;;;;6.90;3.97;;;10.30;45.40;;;;;;5095427;28;20016;-78
2022/02/27 08:38:52;;;;;;;7.60;3.65;;;9.80;46.50;;;;;;5084380;28;20028;-76
2022/02/27 08:41:17;;;;;;;5.72;4.28;;;9.80;47.00;;;;;;5090567;28;20058;-77
2022/02/27 08:43:43;;;;;;;8.65;4.05;;;9.70;47.10;;;;;;5092574;28;20500;-77
2022/02/27 08:46:09;;;;;;;5.63;4.07;;;9.80;46.60;;;;;;5092091;28;20028;-77
2022/02/27 08:48:34;;;;;;;5.82;3.53;;;10.20;46.00;;;;;;5093454;28;20036;-77
2022/02/27 08:51:00;;;;;;;7.13;4.50;;;10.60;45.50;;;;;;5084266;28;20580;-77
2022/02/27 08:53:26;;;;;;;6.07;4.15;;;10.40;45.20;;;;;;5092639;28;20830;-76
2022/02/27 08:55:53;;;;;;;5.70;3.67;;;10.40;46.20;;;;;;5092674;28;20107;-77
2022/02/27 08:58:19;;;;;;;6.32;3.75;;;10.30;46.20;;;;;;5089549;28;20031;-77
2022/02/27 09:00:44;;;;;;;6.18;3.80;;;10.60;45.90;;;;;;5091901;28;20066;-78
2022/02/27 09:03:10;;;;;;;4.93;3.88;;;10.60;45.90;;;;;;5091002;28;20081;-78
2022/02/27 09:05:36;;;;;;;4.93;4.18;;;10.40;45.40;;;;;;5069399;28;20085;-78
2022/02/27 09:08:02;;;;;;;6.97;4.30;;;10.80;45.40;;;;;;5072743;28;20048;-78
2022/02/27 09:10:28;;;;;;;7.10;4.10;;;11.10;44.60;;;;;;5087931;28;20023;-78
2022/02/27 09:12:53;;;;;;;8.52;4.65;;;11.20;44.30;;;;;;5068195;28;20016;-81
2022/02/27 09:15:19;;;;;;;11.35;3.63;;;10.90;44.90;;;;;;5093680;28;20025;-77
2022/02/27 09:17:45;;;;;;;5.50;3.90;;;10.50;45.40;;;;;;5076898;28;20144;-78
2022/02/27 09:20:10;;;;;;;6.40;3.63;;;10.10;46.50;;;;;;5099325;28;20435;-78
2022/02/27 09:22:39;;;;;;;10.18;5.65;;;9.70;48.20;;;;;;5072976;28;20036;-78
2022/02/27 09:25:05;;;;;;;5.35;3.47;;;9.40;49.20;;;;;;5059009;28;20029;-78
2022/02/27 09:27:31;;;;;;;6.40;3.78;;;9.20;50.00;;;;;;5059051;28;20054;-78
2022/02/27 09:29:57;;;;;;;6.60;3.53;;;9.00;51.00;;;;;;5052784;28;20506;-75
2022/02/27 09:32:22;;;;;;;5.43;3.63;;;8.90;51.10;;;;;;5077582;28;20021;-77
2022/02/27 09:34:48;;;;;;;4.05;3.30;;;8.90;51.50;;;;;;5058632;28;20025;-78
2022/02/27 09:37:14;;;;;;;5.68;3.47;;;9.20;51.00;;;;;;5056850;28;20581;-78
2022/02/27 09:39:40;;;;;;;8.88;3.92;;;9.50;50.00;;;;;;5057425;28;20075;-77
2022/02/27 09:42:06;;;;;;;11.48;5.15;;;10.00;49.20;;;;;;5057464;28;20033;-78
2022/02/27 09:44:40;;;;;;;6.05;5.53;;;10.40;47.80;;;;;;5039153;28;20067;-78
2022/02/27 09:47:15;;;;;;;5.40;4.72;;;10.90;46.40;;;;;;5057156;28;20025;-78
2022/02/27 09:49:45;;;;;;;6.63;4.63;;;12.00;45.30;;;;;;5057352;28;20040;-78
2022/02/27 09:52:11;;;;;;;6.10;4.30;;;12.80;42.60;;;;;;5057525;28;20040;-78
2022/02/27 09:54:38;;;;;;;6.63;4.53;;;13.20;40.70;;;;;;5067439;28;20024;-79
2022/02/27 09:57:04;;;;;;;6.57;3.83;;;13.10;40.30;;;;;;5076708;28;20171;-78
2022/02/27 09:59:29;;;;;;;5.07;3.90;;;13.20;40.30;;;;;;5076184;28;20873;-78
2022/02/27 10:02:03;;;;;;;7.97;4.70;;;13.50;40.50;;;;;;5076458;28;20550;-78
2022/02/27 10:04:36;;;;;;;6.00;4.47;;;13.70;40.40;;;;;;5076262;28;20028;-78
2022/02/27 10:07:17;;;;;;;7.00;3.85;;;14.20;39.20;;;;;;5058593;28;20021;-78
2022/02/27 10:09:44;;;;;;;4.85;4.38;;;13.80;39.20;;;;;;5075278;28;20104;-79
2022/02/27 10:12:12;;;;;;;5.00;3.65;;;13.00;40.20;;;;;;5058720;28;20405;-78
2022/02/27 10:14:38;;;;;;;6.93;4.10;;;13.00;40.80;;;;;;5058334;28;20048;-78
2022/02/27 10:17:05;;;;;;;5.53;4.20;;;12.70;41.70;;;;;;5055661;28;20051;-78
2022/02/27 10:19:36;;;;;;;6.80;4.45;;;12.70;42.30;;;;;;5077525;28;20032;-78
2022/02/27 10:22:02;;;;;;;6.80;4.30;;;12.60;42.70;;;;;;5076141;28;20092;-78
2022/02/27 10:24:28;;;;;;;3.90;2.90;;;12.10;43.20;;;;;;5058171;28;20027;-78
2022/02/27 10:26:54;;;;;;;5.07;3.17;;;11.80;44.10;;;;;;5043529;28;20048;-78
2022/02/27 10:29:26;;;;;;;6.85;3.70;;;11.30;45.20;;;;;;5056750;28;20067;-78
2022/02/27 10:31:53;;;;;;;7.22;3.42;;;11.00;46.60;;;;;;5068755;28;20024;-78
2022/02/27 10:34:22;;;;;;;7.72;4.50;;;10.50;47.70;;;;;;5060189;28;20532;-77
2022/02/27 10:36:54;;;;;;;5.43;3.80;;;10.40;48.40;;;;;;5053020;28;20024;-78
2022/02/27 10:39:48;;;;;;;7.30;3.40;;;10.30;49.10;;;;;;5051495;28;20027;-75
2022/02/27 10:42:17;;;;;;;7.45;3.55;;;10.10;49.80;;;;;;5050345;28;20044;-78
2022/02/27 10:44:53;;;;;;;9.27;3.75;;;10.00;50.40;;;;;;5074504;28;20116;-78
2022/02/27 10:47:23;;;;;;;6.57;3.97;;;10.00;50.40;;;;;;5073553;28;20025;-78
2022/02/27 10:49:51;;;;;;;8.98;3.20;;;10.10;50.90;;;;;;5070168;28;20027;-78
2022/02/27 10:52:20;;;;;;;6.05;2.85;;;10.10;50.40;;;;;;5052165;28;20034;-80
2022/02/27 10:54:51;;;;;;;5.38;3.40;;;10.20;51.00;;;;;;5054671;28;20554;-79
2022/02/27 10:57:33;;;;;;;8.13;4.35;;;9.90;50.90;;;;;;5071427;28;20028;-76
2022/02/27 11:00:20;;;;;;;7.25;4.63;;;10.00;51.40;;;;;;5068813;28;20008;-77
2022/02/27 11:02:56;;;;;;;5.72;3.92;;;10.20;52.00;;;;;;5071270;28;20032;-78
2022/02/27 11:05:27;;;;;;;9.15;4.45;;;10.60;51.20;;;;;;5055934;28;20549;-76
2022/02/27 11:07:58;;;;;;;7.88;4.15;;;10.70;50.30;;;;;;5062853;28;20044;-77
2022/02/27 11:10:26;;;;;;;12.07;6.88;;;10.80;50.10;;;;;;5047848;28;20025;-79
2022/02/27 11:12:52;;;;;;;7.65;4.13;;;10.70;50.60;;;;;;5064889;28;20028;-78
2022/02/27 11:15:22;;;;;;;6.88;3.33;;;10.50;51.50;;;;;;5072777;28;20021;-78
2022/02/27 11:17:49;;;;;;;7.45;4.15;;;10.30;51.50;;;;;;5052641;28;20028;-80
2022/02/27 11:20:16;;;;;;;10.13;3.92;;;10.40;51.80;;;;;;5068087;28;20559;-77
2022/02/27 11:22:42;;;;;;;6.45;3.47;;;10.30;51.70;;;;;;5072060;28;20043;-76
2022/02/27 11:25:10;;;;;;;5.50;3.60;;;10.20;52.00;;;;;;5067981;28;20852;-78
2022/02/27 11:27:38;;;;;;;10.38;3.53;;;10.30;52.40;;;;;;5065659;28;20021;-77
2022/02/27 11:30:06;;;;;;;10.45;4.10;;;10.40;51.90;;;;;;5065320;28;20036;-76
2022/02/27 11:32:31;;;;;;;5.30;3.10;;;10.50;52.30;;;;;;5063751;28;20043;-76
2022/02/27 11:34:57;;;;;;;6.20;3.75;;;10.70;51.80;;;;;;5065681;28;20029;-78
2022/02/27 11:37:51;;;;;;;8.85;4.22;;;10.70;52.00;;;;;;5072904;28;20024;-76
2022/02/27 11:40:28;;;;;;;5.93;3.10;;;10.80;51.70;;;;;;5060998;28;20543;-77
2022/02/27 11:42:55;;;;;;;8.98;3.78;;;10.70;51.90;;;;;;5054398;28;20544;-76
2022/02/27 11:45:36;;;;;;;8.32;4.03;;;10.80;52.00;;;;;;5065406;28;20021;-76
2022/02/27 11:48:03;;;;;;;7.45;3.83;;;10.80;52.20;;;;;;5052160;28;20025;-77
2022/02/27 11:50:30;;;;;;;7.55;3.58;;;10.80;52.90;;;;;;5050903;28;20056;-76
2022/02/27 11:52:56;;;;;;;8.65;3.90;;;10.90;52.40;;;;;;5073010;28;20103;-76
2022/02/27 11:55:42;;;;;;;9.95;4.05;;;10.80;52.90;;;;;;5045277;28;20059;-76
2022/02/27 11:58:40;;;;;;;6.47;4.93;;;11.10;52.20;;;;;;5064814;28;20021;-76
2022/02/27 12:01:07;;;;;;;8.88;4.50;;;11.30;51.60;;;;;;5054805;28;20070;-78
2022/02/27 12:03:32;;;;;;;8.68;5.40;;;11.30;51.80;;;;;;5045357;28;20112;-77
2022/02/27 12:06:00;;;;;;;8.65;4.10;;;11.20;52.10;;;;;;5043862;28;20059;-76
2022/02/27 12:08:42;;;;;;;13.85;4.28;;;11.30;51.80;;;;;;5055783;28;20049;-76
2022/02/27 12:11:27;;;;;;;7.47;4.55;;;11.20;52.20;;;;;;5061095;28;20024;-76
2022/02/27 12:13:53;;;;;;;5.78;3.58;;;11.40;51.90;;;;;;5051896;28;20028;-75
2022/02/27 12:16:32;;;;;;;6.10;4.30;;;11.30;52.30;;;;;;5054721;28;20056;-74
2022/02/27 12:18:58;;;;;;;5.60;3.63;;;11.30;52.60;;;;;;5070564;28;20032;-75
2022/02/27 12:21:40;;;;;;;8.10;4.30;;;11.20;52.80;;;;;;5072807;28;20066;-79
2022/02/27 12:24:11;;;;;;;5.60;3.95;;;11.10;53.70;;;;;;5070828;28;20074;-78
2022/02/27 12:26:37;;;;;;;11.13;4.10;;;11.30;53.70;;;;;;5046120;28;20091;-79
2022/02/27 12:29:04;;;;;;;7.07;4.00;;;11.20;54.30;;;;;;5067638;28;20078;-75
2022/02/27 12:31:35;;;;;;;7.22;4.20;;;11.30;54.10;;;;;;5070454;28;20039;-77
2022/02/27 12:34:21;;;;;;;6.82;3.58;;;11.30;53.50;;;;;;5054580;28;20056;-76
2022/02/27 12:36:52;;;;;;;6.53;3.50;;;11.20;53.20;;;;;;5073507;28;20091;-76
2022/02/27 12:39:19;;;;;;;7.20;4.50;;;11.40;53.30;;;;;;5071456;28;20600;-79
2022/02/27 12:41:54;;;;;;;7.03;4.53;;;11.50;53.70;;;;;;5073394;28;20029;-77
2022/02/27 12:44:30;;;;;;;7.15;4.13;;;11.80;53.70;;;;;;5055221;28;20025;-76
2022/02/27 12:46:57;;;;;;;4.85;3.45;;;11.90;53.10;;;;;;5052940;28;20028;-76
2022/02/27 12:52:15;;;;;;;7.55;3.95;;;11.80;52.60;;;;;;5070902;28;20074;-76
2022/02/27 12:54:44;;;;;;;10.00;4.15;;;11.60;53.80;;;;;;5071618;28;20504;-76
2022/02/27 12:57:10;;;;;;;5.50;3.20;;;11.60;54.30;;;;;;5059124;28;20391;-77
2022/02/27 12:59:40;;;;;;;7.45;3.95;;;11.70;54.30;;;;;;5055460;28;20032;-76